Time;durP1;ratioP1;P1;durP2;ratioP2;P2;SDS_P1;SDS_P2;PMS_P1;PMS_P2;Temp;Humidity;BMP_temperature;BMP_pressure;BME280_temperature;BME280_humidity;BME280_pressure;Samples;Min_cycle;Max_cycle;Signal;HPM_P1;HPM_P2
2022/09/21 00:00:03;;;;;;;13.10;7.50;;;;;;;7.67;100.00;99063.37;218939;1284;22713;-76
2022/09/21 00:06:50;;;;;;;12.00;7.20;;;;;;;7.68;100.00;99060.91;218022;1287;22582;-76
2022/09/21 00:13:25;;;;;;;11.40;6.10;;;;;;;7.65;100.00;99061.66;218011;1282;22612;-77
2022/09/21 00:20:18;;;;;;;9.90;6.50;;;;;;;7.60;100.00;99062.11;219909;1276;22574;-77
2022/09/21 00:26:53;;;;;;;12.90;5.90;;;;;;;7.53;100.00;99064.86;219733;1276;24992;-76
2022/09/21 00:33:40;;;;;;;;;;;;;;;;;;;;;
2022/09/21 00:40:02;;;;;;;10.10;6.20;;;;;;;7.38;100.00;99071.41;219579;1277;25439;-76
2022/09/21 00:46:34;;;;;;;;;;;;;;;;;;;;;
2022/09/21 00:52:38;;;;;;;11.50;6.50;;;;;;;7.46;100.00;99071.02;220960;1276;24338;-77
2022/09/21 01:04:52;;;;;;;11.70;7.60;;;;;;;7.54;100.00;99073.23;219117;1283;22711;-77
2022/09/21 01:10:57;;;;;;;12.20;7.40;;;;;;;7.60;100.00;99077.10;218926;1284;22749;-76
2022/09/21 01:17:37;;;;;;;14.50;7.70;;;;;;;7.67;100.00;99074.84;218832;1284;22557;-75
2022/09/21 01:24:20;;;;;;;;;;;;;;;;;;;;;
2022/09/21 01:30:54;;;;;;;13.60;8.60;;;;;;;7.80;100.00;99076.96;219292;1281;24270;-77
2022/09/21 01:37:03;;;;;;;;;;;;;;;;;;;;;
2022/09/21 01:43:11;;;;;;;14.10;8.40;;;;;;;7.83;100.00;99090.40;219076;1284;22551;-76
2022/09/21 01:50:07;;;;;;;12.10;8.50;;;;;;;7.87;100.00;99094.59;214580;1283;5354131;-77
2022/09/21 01:56:23;;;;;;;;;;;;;;;;;;;;;
2022/09/21 02:02:56;;;;;;;13.20;10.10;;;;;;;7.95;100.00;99098.88;220345;1281;22562;-75
2022/09/21 02:09:15;;;;;;;16.30;10.40;;;;;;;7.96;100.00;99098.81;218822;1284;24459;-77
2022/09/21 02:14:34;;;;;;;16.10;11.50;;;;;;;7.98;100.00;99105.12;218785;1283;22861;-76
2022/09/21 02:20:45;;;;;;;16.30;10.70;;;;;;;7.99;100.00;99106.78;218793;1284;24275;-76
2022/09/21 02:27:01;;;;;;;;;;;;;;;;;;;;;
2022/09/21 02:33:16;;;;;;;;;;;;;;;;;;;;;
2022/09/21 02:40:43;;;;;;;15.90;11.20;;;;;;;8.04;100.00;99110.84;218641;1284;25423;-76
2022/09/21 02:47:16;;;;;;;14.60;10.70;;;;;;;8.04;100.00;99115.44;221060;1276;22566;-76
2022/09/21 02:53:16;;;;;;;;;;;;;;;;;;;;;
2022/09/21 02:59:27;;;;;;;15.20;10.60;;;;;;;7.94;100.00;99116.42;219979;1276;24208;-77
2022/09/21 03:06:07;;;;;;;15.30;10.30;;;;;;;7.95;100.00;99129.81;220706;1277;23134;-77
2022/09/21 03:12:15;;;;;;;;;;;;;;;;;;;;;
2022/09/21 03:18:08;;;;;;;12.70;9.40;;;;;;;7.91;100.00;99140.16;219837;1276;24353;-77
2022/09/21 03:31:01;;;;;;;;;;;;;;;;;;;;;
2022/09/21 03:43:54;;;;;;;15.90;9.90;;;;;;;7.84;100.00;99161.05;218649;1284;22965;-76
2022/09/21 03:50:20;;;;;;;15.30;10.60;;;;;;;7.85;100.00;99166.92;217239;1287;22751;-77
2022/09/21 03:56:06;;;;;;;18.10;10.30;;;;;;;7.86;100.00;99163.89;217902;1287;24433;-77
2022/09/21 04:01:36;;;;;;;13.90;9.30;;;;;;;7.88;100.00;99171.63;217803;1287;22742;-77
2022/09/21 04:08:20;;;;;;;20.70;11.50;;;;;;;7.87;100.00;99169.58;218899;1284;22695;-76
2022/09/21 04:15:00;;;;;;;16.70;10.20;;;;;;;7.85;100.00;99175.18;219030;1284;22548;-77
2022/09/21 04:21:23;;;;;;;20.30;10.70;;;;;;;7.82;100.00;99179.33;218926;1284;24364;-76
2022/09/21 04:28:04;;;;;;;21.50;11.10;;;;;;;7.81;100.00;99177.45;219718;1284;22584;-76
2022/09/21 04:34:42;;;;;;;17.40;10.30;;;;;;;7.80;100.00;99179.69;218088;1287;24275;-76
2022/09/21 04:40:08;;;;;;;20.30;10.70;;;;;;;7.81;100.00;99179.16;218868;1287;22620;-77
2022/09/21 04:46:26;;;;;;;;;;;;;;;;;;;;;
2022/09/21 04:52:33;;;;;;;22.90;11.80;;;;;;;7.82;100.00;99182.10;219094;1287;24269;-77
2022/09/21 04:58:12;;;;;;;22.80;11.70;;;;;;;7.82;100.00;99186.36;218696;1284;22573;-77
2022/09/21 05:03:21;;;;;;;21.90;11.30;;;;;;;7.83;100.00;99186.58;218965;1284;22572;-76
2022/09/21 05:14:35;;;;;;;22.80;10.80;;;;;;;7.80;100.00;99194.36;220040;1282;26551;-75
2022/09/21 05:20:07;;;;;;;21.40;9.90;;;;;;;7.77;100.00;99193.23;218821;1284;22581;-76
2022/09/21 05:25:32;;;;;;;22.80;12.50;;;;;;;7.77;100.00;99200.80;219232;1283;25231;-77
2022/09/21 05:32:18;;;;;;;27.30;11.20;;;;;;;7.79;100.00;99203.85;218740;1284;22796;-77
2022/09/21 05:38:32;;;;;;;25.00;11.70;;;;;;;7.82;100.00;99206.36;219774;1284;24440;-77
2022/09/21 05:44:08;;;;;;;20.30;9.90;;;;;;;7.87;100.00;99213.98;219031;1284;25551;-77
2022/09/21 05:50:28;;;;;;;;;;;;;;;;;;;;;
2022/09/21 05:57:50;;;;;;;17.90;9.80;;;;;;;8.06;100.00;99218.86;219466;1284;22583;-76
2022/09/21 06:04:16;;;;;;;18.80;9.90;;;;;;;8.16;100.00;99223.86;219739;1284;24220;-77
2022/09/21 06:10:08;;;;;;;25.40;10.60;;;;;;;8.29;100.00;99231.27;221077;1282;24324;-80
2022/09/21 06:16:47;;;;;;;22.70;10.60;;;;;;;8.42;100.00;99226.36;219826;1282;22679;-77
2022/09/21 06:23:39;;;;;;;;;;;;;;;;;;;;;
2022/09/21 06:30:05;;;;;;;20.00;10.40;;;;;;;8.54;100.00;99229.89;220481;1276;23821;-75
2022/09/21 06:35:39;;;;;;;19.20;10.30;;;;;;;8.60;100.00;99229.20;220344;1276;22563;-76
2022/09/21 06:41:15;;;;;;;19.20;10.00;;;;;;;8.62;100.00;99238.40;220118;1279;22570;-76
2022/09/21 06:47:24;;;;;;;18.80;10.60;;;;;;;8.67;100.00;99239.90;221060;1276;22552;-76
2022/09/21 06:59:14;;;;;;;;;;;;;;;;;;;;;
2022/09/21 07:04:57;;;;;;;16.20;9.80;;;;;;;8.98;100.00;99251.71;219423;1281;24020;-76
2022/09/21 07:10:50;;;;;;;16.30;9.60;;;;;;;9.18;100.00;99255.19;219588;1281;22557;-75
2022/09/21 07:17:20;;;;;;;15.20;10.00;;;;;;;9.24;100.00;99265.73;218828;1283;24313;-76
2022/09/21 07:23:01;;;;;;;16.40;9.70;;;;;;;9.27;100.00;99268.88;219367;1281;24281;-75
2022/09/21 07:28:40;;;;;;;14.00;9.30;;;;;;;9.30;100.00;99275.73;219711;1281;24760;-76
2022/09/21 07:34:03;;;;;;;17.40;9.80;;;;;;;9.28;100.00;99274.87;219919;1281;23814;-77
2022/09/21 07:40:01;;;;;;;18.20;10.20;;;;;;;9.29;100.00;99278.03;219947;1281;22548;-76
2022/09/21 07:46:48;;;;;;;18.10;9.10;;;;;;;9.31;100.00;99284.34;220136;1279;25408;-77
2022/09/21 07:52:29;;;;;;;15.40;9.60;;;;;;;9.29;100.00;99290.64;221737;1278;22560;-76
2022/09/21 08:03:56;;;;;;;14.50;8.70;;;;;;;9.41;100.00;99293.48;221757;1278;22550;-76
2022/09/21 08:09:21;;;;;;;16.00;9.70;;;;;;;9.57;100.00;99293.85;219706;1282;23016;-74
2022/09/21 08:15:17;;;;;;;;;;;;;;;;;;;;;
2022/09/21 08:22:13;;;;;;;14.20;8.40;;;;;;;9.70;100.00;99307.25;219167;1284;22574;-76
2022/09/21 08:28:17;;;;;;;13.70;7.50;;;;;;;9.72;100.00;99306.84;219110;1284;22553;-77
2022/09/21 08:34:25;;;;;;;;;;;;;;;;;;;;;
2022/09/21 08:41:16;;;;;;;;;;;;;;;;;;;;;
2022/09/21 08:47:29;;;;;;;8.40;5.60;;;;;;;10.35;100.00;99313.34;219194;1281;25328;-77
2022/09/21 08:52:32;;;;;;;8.30;6.30;;;;;;;10.62;100.00;99315.07;220086;1278;23860;-76
2022/09/21 08:58:42;;;;;;;;;;;;;;;;;;;;;
2022/09/21 09:04:38;;;;;;;;;;;;;;;;;;;;;
2022/09/21 09:10:18;;;;;;;8.40;5.20;;;;;;;10.89;100.00;99314.93;221730;1278;22677;-79
2022/09/21 09:15:46;;;;;;;8.50;5.70;;;;;;;10.95;100.00;99315.81;221913;1276;25374;-81
2022/09/21 09:21:05;;;;;;;9.10;5.60;;;;;;;11.09;100.00;99312.73;221932;1278;22593;-80
2022/09/21 09:26:41;;;;;;;;;;;;;;;;;;;;;
2022/09/21 09:32:47;;;;;;;7.20;6.10;;;;;;;11.52;100.00;99307.90;222038;1277;25370;-80
2022/09/21 09:39:34;;;;;;;;;;;;;;;;;;;;;
2022/09/21 09:45:38;;;;;;;7.70;5.40;;;;;;;11.71;100.00;99299.68;221612;1276;22732;-80
2022/09/21 09:51:01;;;;;;;8.20;5.70;;;;;;;11.74;100.00;99307.66;221775;1276;22576;-80
2022/09/21 09:56:37;;;;;;;6.00;3.80;;;;;;;11.86;100.00;99311.67;220121;1278;25416;-74
2022/09/21 10:02:39;;;;;;;3.90;3.30;;;;;;;11.98;100.00;99305.36;220536;1276;22538;-75
2022/09/21 10:08:01;;;;;;;3.80;3.40;;;;;;;12.01;100.00;99311.44;220246;1276;24287;-74
2022/09/21 10:13:52;;;;;;;3.70;3.00;;;;;;;12.10;100.00;99311.09;220273;1276;24560;-74
2022/09/21 10:19:34;;;;;;;;;;;;;;;;;;;;;
2022/09/21 10:25:04;;;;;;;3.50;2.70;;;;;;;12.14;99.83;99318.89;220228;1278;22617;-76
2022/09/21 10:30:49;;;;;;;6.00;2.80;;;;;;;12.07;99.84;99316.59;219578;1282;22882;-75
2022/09/21 10:36:54;;;;;;;6.80;3.00;;;;;;;12.06;99.77;99321.44;219637;1281;25435;-78
2022/09/21 10:42:31;;;;;;;;;;;;;;;;;;;;;
2022/09/21 10:48:41;;;;;;;6.40;3.30;;;;;;;11.91;98.90;99320.92;220634;1282;22588;-79
2022/09/21 10:54:21;;;;;;;;;;;;;;;;;;;;;
2022/09/21 11:00:54;;;;;;;5.10;3.50;;;;;;;12.07;98.71;99311.38;221208;1278;22571;-81
2022/09/21 11:06:54;;;;;;;4.60;3.10;;;;;;;12.46;98.53;99304.65;222144;1276;22644;-80
2022/09/21 11:13:13;;;;;;;3.40;2.80;;;;;;;12.77;97.80;99305.23;220251;1284;22644;-79
2022/09/21 11:19:16;;;;;;;3.40;2.50;;;;;;;13.18;97.97;99309.34;221943;1276;25269;-81
2022/09/21 11:25:31;;;;;;;;;;;;;;;;;;;;;
2022/09/21 11:31:25;;;;;;;4.70;2.30;;;;;;;13.72;96.03;99300.84;221690;1276;22587;-82
2022/09/21 11:37:20;;;;;;;2.30;2.00;;;;;;;13.85;94.71;99306.81;221674;1277;22553;-78
2022/09/21 11:43:10;;;;;;;2.60;2.30;;;;;;;13.90;94.08;99290.40;220780;1277;25418;-78
2022/09/21 11:49:28;;;;;;;;;;;;;;;;;;;;;
2022/09/21 11:55:38;;;;;;;2.60;2.20;;;;;;;14.01;92.40;99286.33;221358;1277;22557;-77
2022/09/21 12:02:26;;;;;;;;;;;;;;;;;;;;;
2022/09/21 12:08:53;;;;;;;2.40;2.20;;;;;;;14.08;92.44;99280.48;219937;1284;22581;-79
2022/09/21 12:15:29;;;;;;;3.70;2.30;;;;;;;14.51;91.16;99269.84;219252;1287;22571;-78
2022/09/21 12:21:44;;;;;;;3.30;2.00;;;;;;;14.70;90.31;99269.01;221585;1277;24851;-78
2022/09/21 12:33:51;;;;;;;;;;;;;;;;;;;;;
2022/09/21 12:40:16;;;;;;;2.30;1.70;;;;;;;14.81;87.88;99259.52;221672;1277;25423;-78
2022/09/21 12:45:50;;;;;;;2.40;1.60;;;;;;;14.96;87.87;99252.46;221972;1277;22565;-78
2022/09/21 12:52:32;;;;;;;5.90;1.80;;;;;;;15.06;87.31;99247.36;219551;1283;22733;-78
2022/09/21 12:59:16;;;;;;;;;;;;;;;;;;;;;
2022/09/21 13:05:40;;;;;;;3.30;2.00;;;;;;;15.32;86.31;99239.92;220777;1284;22813;-78
2022/09/21 13:11:09;;;;;;;1.60;1.50;;;;;;;15.23;85.89;99239.23;220894;1282;22569;-77
2022/09/21 13:17:39;;;;;;;2.90;1.50;;;;;;;15.16;84.93;99234.42;220327;1284;24337;-77
2022/09/21 13:23:57;;;;;;;4.30;1.30;;;;;;;15.18;84.05;99228.34;220554;1284;22554;-78
2022/09/21 13:29:54;;;;;;;4.10;1.90;;;;;;;14.90;83.95;99240.51;219515;1284;22586;-80
2022/09/21 13:36:44;;;;;;;;;;;;;;;;;;;;;
2022/09/21 13:42:57;;;;;;;1.20;1.10;;;;;;;13.82;86.13;99233.19;220308;1284;23199;-81
2022/09/21 13:49:40;;;;;;;;;;;;;;;;;;;;;
2022/09/21 13:55:36;;;;;;;3.00;1.60;;;;;;;13.76;86.33;99222.96;220633;1284;25352;-80
2022/09/21 14:01:21;;;;;;;3.20;1.70;;;;;;;13.66;86.23;99222.23;220693;1284;24344;-80
2022/09/21 14:07:13;;;;;;;4.30;1.70;;;;;;;13.54;86.07;99215.95;220766;1280;22772;-80
2022/09/21 14:12:49;;;;;;;1.30;1.20;;;;;;;13.63;85.80;99218.91;221137;1276;22568;-78
2022/09/21 14:18:55;;;;;;;1.10;0.90;;;;;;;13.25;83.92;99236.27;220075;1278;25418;-81
2022/09/21 14:25:54;;;;;;;;;;;;;;;;;;;;;
2022/09/21 14:32:03;;;;;;;;;;;;;;;;;;;;;
2022/09/21 14:38:58;;;;;;;;;;;;;;;;;;;;;
2022/09/21 14:51:10;;;;;;;3.40;2.10;;;;;;;10.53;91.21;99240.32;220083;1282;22607;-84
2022/09/21 14:57:00;;;;;;;2.00;1.80;;;;;;;10.43;91.36;99244.55;220332;1282;22541;-83
2022/09/21 15:02:59;;;;;;;2.30;1.50;;;;;;;10.34;92.00;99243.83;219507;1284;24315;-81
2022/09/21 15:15:16;;;;;;;;;;;;;;;;;;;;;
2022/09/21 15:20:58;;;;;;;;;;;;;;;;;;;;;
2022/09/21 15:27:44;;;;;;;;;;;;;;;;;;;;;
2022/09/21 15:33:12;;;;;;;3.50;2.20;;;;;;;9.99;93.81;99240.47;220089;1282;22684;-83
2022/09/21 15:39:12;;;;;;;;;;;;;;;;;;;;;
2022/09/21 15:45:04;;;;;;;;;;;;;;;;;;;;;
2022/09/21 15:50:40;;;;;;;;;;;;;;;;;;;;;
2022/09/21 15:55:51;;;;;;;6.30;3.30;;;;;;;9.85;94.78;99250.67;221392;1277;24309;-80
2022/09/21 16:01:38;;;;;;;4.30;3.00;;;;;;;9.85;95.00;99249.77;220915;1277;22784;-79
2022/09/21 16:07:46;;;;;;;6.20;3.40;;;;;;;9.91;94.86;99252.33;221143;1277;22555;-80
2022/09/21 16:20:20;;;;;;;;;;;;;;;;;;;;;
2022/09/21 16:26:05;;;;;;;3.30;2.30;;;;;;;10.09;95.24;99259.17;220825;1277;22568;-79
2022/09/21 16:31:49;;;;;;;2.70;2.00;;;;;;;10.07;95.34;99264.48;220740;1277;24624;-78
2022/09/21 16:38:14;;;;;;;;;;;;;;;;;;;;;
2022/09/21 16:44:16;;;;;;;5.80;2.90;;;;;;;9.93;95.89;99267.52;220048;1282;22600;-79
2022/09/21 16:51:16;;;;;;;;;;;;;;;;;;;;;
2022/09/21 16:57:44;;;;;;;5.40;3.80;;;;;;;9.78;96.24;99278.09;219307;1284;25271;-78
2022/09/21 17:03:53;;;;;;;5.90;4.00;;;;;;;9.69;96.22;99279.81;219104;1284;22554;-79
2022/09/21 17:10:10;;;;;;;;;;;;;;;;;;;;;
2022/09/21 17:15:45;;;;;;;8.70;5.20;;;;;;;9.59;96.90;99281.60;220287;1280;24270;-79
2022/09/21 17:22:06;;;;;;;8.80;5.10;;;;;;;9.56;97.14;99284.48;220430;1279;22544;-79
2022/09/21 17:28:32;;;;;;;;;;;;;;;;;;;;;
2022/09/21 17:35:19;;;;;;;;;;;;;;;;;;;;;
2022/09/21 17:42:23;;;;;;;;;;;;;;;;;;;;;
2022/09/21 17:49:08;;;;;;;12.80;7.50;;;;;;;9.05;98.35;99306.60;217320;1292;22597;-78
2022/09/21 17:55:39;;;;;;;12.40;7.70;;;;;;;8.91;98.47;99308.07;219042;1285;24343;-79
2022/09/21 18:02:21;;;;;;;10.90;7.10;;;;;;;8.77;98.82;99312.04;220116;1282;23485;-79
2022/09/21 18:08:01;;;;;;;11.30;7.80;;;;;;;8.65;99.14;99315.16;220052;1282;24114;-79
2022/09/21 18:13:59;;;;;;;10.90;7.50;;;;;;;8.57;99.62;99318.45;220974;1276;22558;-78
2022/09/21 18:21:03;;;;;;;;;;;;;;;;;;;;;
2022/09/21 18:27:24;;;;;;;17.80;10.30;;;;;;;8.40;99.97;99323.05;220065;1281;22584;-78
2022/09/21 18:33:38;;;;;;;;;;;;;;;;;;;;;
2022/09/21 18:40:09;;;;;;;;;;;;;;;;;;;;;
2022/09/21 18:46:49;;;;;;;;;;;;;;;;;;;;;
2022/09/21 18:53:37;;;;;;;;;;;;;;;;;;;;;
2022/09/21 18:59:46;;;;;;;;;;;;;;;;;;;;;
2022/09/21 19:06:08;;;;;;;24.20;16.00;;;;;;;7.94;100.00;99325.89;220443;1281;24569;-78
2022/09/21 19:12:40;;;;;;;23.40;15.20;;;;;;;7.88;100.00;99332.10;219733;1281;22574;-79
2022/09/21 19:26:28;;;;;;;18.60;12.60;;;;;;;7.77;100.00;99330.63;219971;1276;24420;-80
2022/09/21 19:32:27;;;;;;;18.10;11.80;;;;;;;7.74;100.00;99325.96;221025;1276;22644;-78
2022/09/21 19:37:38;;;;;;;19.40;12.10;;;;;;;7.70;100.00;99323.81;220946;1276;23100;-78
2022/09/21 19:43:51;;;;;;;17.40;11.80;;;;;;;7.66;100.00;99321.91;221095;1276;25439;-78
2022/09/21 19:49:53;;;;;;;21.80;13.60;;;;;;;7.62;100.00;99321.45;220576;1276;22557;-78
2022/09/21 20:02:49;;;;;;;;;;;;;;;;;;;;;
2022/09/21 20:09:24;;;;;;;14.90;10.30;;;;;;;7.60;100.00;99310.30;219979;1282;23782;-78
2022/09/21 20:22:32;;;;;;;17.80;10.40;;;;;;;7.69;100.00;99310.36;221060;1276;22695;-79
2022/09/21 20:28:57;;;;;;;16.30;9.70;;;;;;;7.77;100.00;99310.79;220840;1276;24296;-78
2022/09/21 20:34:56;;;;;;;13.60;8.90;;;;;;;7.87;100.00;99310.96;219365;1281;22569;-78
2022/09/21 20:41:23;;;;;;;15.90;9.60;;;;;;;7.97;100.00;99313.95;220435;1280;23224;-79
2022/09/21 20:47:39;;;;;;;16.70;10.70;;;;;;;8.08;100.00;99317.98;220459;1280;22571;-78
2022/09/21 20:54:03;;;;;;;;;;;;;;;;;;;;;
2022/09/21 21:00:09;;;;;;;18.40;11.60;;;;;;;8.20;100.00;99314.25;220750;1277;25429;-79
2022/09/21 21:06:34;;;;;;;17.30;10.40;;;;;;;8.25;100.00;99314.54;221024;1277;25489;-80
2022/09/21 21:13:06;;;;;;;16.90;9.60;;;;;;;8.33;100.00;99313.55;221073;1276;25262;-81
2022/09/21 21:18:46;;;;;;;15.70;9.60;;;;;;;8.35;100.00;99312.06;220761;1276;25423;-82
2022/09/21 21:24:46;;;;;;;18.70;11.20;;;;;;;8.37;100.00;99313.65;220826;1277;25376;-81
2022/09/21 21:30:55;;;;;;;;;;;;;;;;;;;;;
2022/09/21 21:36:41;;;;;;;17.00;10.60;;;;;;;8.41;100.00;99307.67;220262;1281;22532;-80
2022/09/21 21:42:34;;;;;;;14.60;10.10;;;;;;;8.42;100.00;99304.25;220442;1279;25365;-81
2022/09/21 21:48:32;;;;;;;12.50;8.20;;;;;;;8.36;100.00;99302.31;220421;1281;22747;-79
2022/09/21 21:54:42;;;;;;;17.50;9.90;;;;;;;8.28;100.00;99292.13;219812;1284;23427;-80
2022/09/21 22:00:24;;;;;;;17.60;9.90;;;;;;;8.17;100.00;99294.32;219976;1284;22862;-80
2022/09/21 22:06:12;;;;;;;16.70;10.20;;;;;;;8.05;100.00;99292.18;219950;1284;22557;-79
2022/09/21 22:12:02;;;;;;;;;;;;;;;7.93;100.00;99292.86;220343;1276;23010;-80
2022/09/21 22:18:19;;;;;;;16.60;9.30;;;;;;;7.80;100.00;99296.98;220458;1277;24213;-79
2022/09/21 22:31:00;;;;;;;;;;;;;;;;;;;;;
2022/09/21 22:37:08;;;;;;;19.90;11.50;;;;;;;7.53;100.00;99289.97;220811;1278;22557;-79
2022/09/21 22:43:37;;;;;;;;;;;;;;;;;;;;;
2022/09/21 22:49:38;;;;;;;19.50;11.50;;;;;;;7.37;100.00;99282.50;220688;1278;22726;-79
2022/09/21 22:56:00;;;;;;;;;;;;;;;;;;;;;
2022/09/21 23:02:59;;;;;;;;;;;;;;;;;;;;;
2022/09/21 23:09:13;;;;;;;19.30;11.30;;;;;;;7.18;100.00;99277.33;220060;1281;22551;-79
2022/09/21 23:14:59;;;;;;;17.00;10.20;;;;;;;7.11;100.00;99272.52;219355;1284;22710;-80
2022/09/21 23:20:59;;;;;;;18.40;11.00;;;;;;;7.07;100.00;99273.71;219441;1284;22596;-79
2022/09/21 23:34:41;;;;;;;17.00;10.40;;;;;;;6.94;100.00;99272.11;221151;1276;22549;-79
2022/09/21 23:41:05;;;;;;;15.30;10.00;;;;;;;6.89;100.00;99267.31;220070;1278;24249;-79
2022/09/21 23:46:50;;;;;;;18.20;10.30;;;;;;;6.87;100.00;99261.98;220896;1276;22556;-78
2022/09/21 23:53:46;;;;;;;18.20;11.20;;;;;;;6.82;100.00;99266.50;220743;1276;25272;-79
2022/09/21 23:59:55;;;;;;;16.20;10.20;;;;;;;6.78;100.00;99266.99;220377;1278;22719;-79
